sensor_id;sensor_type;location;lat;lon;timestamp;P1;durP1;ratioP1;P2;durP2;ratioP2
47790;SDS011;33547;49.044;1.156;2023-01-20T00:01:08;62.10;;;37.95;;
47790;SDS011;33547;49.044;1.156;2023-01-20T00:03:36;58.13;;;35.20;;
47790;SDS011;33547;49.044;1.156;2023-01-20T00:06:02;73.75;;;38.20;;
47790;SDS011;33547;49.044;1.156;2023-01-20T00:08:28;65.72;;;35.83;;
47790;SDS011;33547;49.044;1.156;2023-01-20T00:10:54;159.80;;;50.00;;
47790;SDS011;33547;49.044;1.156;2023-01-20T00:13:20;113.90;;;46.72;;
47790;SDS011;33547;49.044;1.156;2023-01-20T00:15:45;104.50;;;38.85;;
47790;SDS011;33547;49.044;1.156;2023-01-20T00:18:12;119.30;;;44.15;;
47790;SDS011;33547;49.044;1.156;2023-01-20T00:20:38;84.22;;;35.20;;
47790;SDS011;33547;49.044;1.156;2023-01-20T00:23:04;152.02;;;45.05;;
47790;SDS011;33547;49.044;1.156;2023-01-20T00:25:29;129.05;;;43.70;;
47790;SDS011;33547;49.044;1.156;2023-01-20T00:27:55;165.30;;;46.90;;
47790;SDS011;33547;49.044;1.156;2023-01-20T00:30:20;327.80;;;69.63;;
47790;SDS011;33547;49.044;1.156;2023-01-20T00:32:46;183.30;;;47.00;;
47790;SDS011;33547;49.044;1.156;2023-01-20T00:35:12;216.75;;;54.85;;
47790;SDS011;33547;49.044;1.156;2023-01-20T00:37:38;210.18;;;54.67;;
47790;SDS011;33547;49.044;1.156;2023-01-20T00:40:04;223.40;;;57.00;;
47790;SDS011;33547;49.044;1.156;2023-01-20T00:42:31;180.68;;;54.35;;
47790;SDS011;33547;49.044;1.156;2023-01-20T00:44:57;197.00;;;50.45;;
47790;SDS011;33547;49.044;1.156;2023-01-20T00:47:22;173.85;;;43.08;;
47790;SDS011;33547;49.044;1.156;2023-01-20T00:49:48;264.45;;;57.88;;
47790;SDS011;33547;49.044;1.156;2023-01-20T00:52:14;138.30;;;35.78;;
47790;SDS011;33547;49.044;1.156;2023-01-20T00:54:39;103.88;;;35.88;;
47790;SDS011;33547;49.044;1.156;2023-01-20T00:57:05;88.60;;;35.53;;
47790;SDS011;33547;49.044;1.156;2023-01-20T00:59:31;96.53;;;36.17;;
47790;SDS011;33547;49.044;1.156;2023-01-20T01:01:56;83.38;;;34.75;;
47790;SDS011;33547;49.044;1.156;2023-01-20T01:04:22;57.88;;;31.55;;
47790;SDS011;33547;49.044;1.156;2023-01-20T01:06:48;65.93;;;33.30;;
47790;SDS011;33547;49.044;1.156;2023-01-20T01:09:14;78.20;;;37.00;;
47790;SDS011;33547;49.044;1.156;2023-01-20T01:11:40;72.57;;;37.08;;
47790;SDS011;33547;49.044;1.156;2023-01-20T01:14:05;55.30;;;31.70;;
47790;SDS011;33547;49.044;1.156;2023-01-20T01:16:31;55.67;;;32.50;;
47790;SDS011;33547;49.044;1.156;2023-01-20T01:18:56;53.08;;;30.45;;
47790;SDS011;33547;49.044;1.156;2023-01-20T01:21:22;53.80;;;31.85;;
47790;SDS011;33547;49.044;1.156;2023-01-20T01:23:48;62.80;;;36.25;;
47790;SDS011;33547;49.044;1.156;2023-01-20T01:26:15;52.28;;;31.35;;
47790;SDS011;33547;49.044;1.156;2023-01-20T01:28:41;48.10;;;29.88;;
47790;SDS011;33547;49.044;1.156;2023-01-20T01:31:07;50.92;;;30.80;;
47790;SDS011;33547;49.044;1.156;2023-01-20T01:33:34;40.50;;;26.02;;
47790;SDS011;33547;49.044;1.156;2023-01-20T01:36:01;45.50;;;28.35;;
47790;SDS011;33547;49.044;1.156;2023-01-20T01:38:28;42.55;;;26.83;;
47790;SDS011;33547;49.044;1.156;2023-01-20T01:40:54;46.25;;;29.42;;
47790;SDS011;33547;49.044;1.156;2023-01-20T01:43:24;41.72;;;27.38;;
47790;SDS011;33547;49.044;1.156;2023-01-20T01:45:55;43.90;;;27.17;;
47790;SDS011;33547;49.044;1.156;2023-01-20T01:48:22;41.15;;;27.60;;
47790;SDS011;33547;49.044;1.156;2023-01-20T01:50:56;50.65;;;29.63;;
47790;SDS011;33547;49.044;1.156;2023-01-20T01:53:25;43.72;;;27.13;;
47790;SDS011;33547;49.044;1.156;2023-01-20T01:55:55;47.58;;;30.25;;
47790;SDS011;33547;49.044;1.156;2023-01-20T01:58:25;45.03;;;27.73;;
47790;SDS011;33547;49.044;1.156;2023-01-20T02:00:54;48.75;;;30.58;;
47790;SDS011;33547;49.044;1.156;2023-01-20T02:03:20;47.95;;;29.92;;
47790;SDS011;33547;49.044;1.156;2023-01-20T02:05:47;58.42;;;34.22;;
47790;SDS011;33547;49.044;1.156;2023-01-20T02:08:15;50.15;;;30.65;;
47790;SDS011;33547;49.044;1.156;2023-01-20T02:10:42;47.20;;;29.35;;
47790;SDS011;33547;49.044;1.156;2023-01-20T02:13:07;44.55;;;27.98;;
47790;SDS011;33547;49.044;1.156;2023-01-20T02:15:37;45.75;;;29.40;;
47790;SDS011;33547;49.044;1.156;2023-01-20T02:18:24;43.78;;;28.27;;
47790;SDS011;33547;49.044;1.156;2023-01-20T02:21:07;37.28;;;26.08;;
47790;SDS011;33547;49.044;1.156;2023-01-20T02:24:01;40.38;;;26.55;;
47790;SDS011;33547;49.044;1.156;2023-01-20T02:32:04;46.55;;;28.02;;
47790;SDS011;33547;49.044;1.156;2023-01-20T02:35:07;38.58;;;25.17;;
47790;SDS011;33547;49.044;1.156;2023-01-20T02:37:47;44.67;;;27.87;;
47790;SDS011;33547;49.044;1.156;2023-01-20T02:43:10;35.42;;;24.13;;
47790;SDS011;33547;49.044;1.156;2023-01-20T02:53:28;46.00;;;30.02;;
47790;SDS011;33547;49.044;1.156;2023-01-20T02:56:00;44.55;;;29.80;;
47790;SDS011;33547;49.044;1.156;2023-01-20T02:58:31;45.97;;;30.08;;
47790;SDS011;33547;49.044;1.156;2023-01-20T03:01:07;49.33;;;31.65;;
47790;SDS011;33547;49.044;1.156;2023-01-20T03:03:40;38.70;;;26.75;;
47790;SDS011;33547;49.044;1.156;2023-01-20T03:06:11;40.92;;;26.42;;
47790;SDS011;33547;49.044;1.156;2023-01-20T03:08:42;39.80;;;25.15;;
47790;SDS011;33547;49.044;1.156;2023-01-20T03:11:10;36.90;;;25.95;;
47790;SDS011;33547;49.044;1.156;2023-01-20T03:16:17;41.22;;;26.05;;
47790;SDS011;33547;49.044;1.156;2023-01-20T03:18:45;37.67;;;24.17;;
47790;SDS011;33547;49.044;1.156;2023-01-20T03:21:11;32.60;;;23.10;;
47790;SDS011;33547;49.044;1.156;2023-01-20T03:23:39;40.65;;;25.60;;
47790;SDS011;33547;49.044;1.156;2023-01-20T03:26:09;36.95;;;23.83;;
47790;SDS011;33547;49.044;1.156;2023-01-20T03:28:36;34.58;;;23.33;;
47790;SDS011;33547;49.044;1.156;2023-01-20T03:31:08;37.50;;;24.13;;
47790;SDS011;33547;49.044;1.156;2023-01-20T03:33:45;38.03;;;24.17;;
47790;SDS011;33547;49.044;1.156;2023-01-20T03:36:12;32.25;;;22.33;;
47790;SDS011;33547;49.044;1.156;2023-01-20T03:38:41;33.50;;;23.25;;
47790;SDS011;33547;49.044;1.156;2023-01-20T03:43:46;41.17;;;25.88;;
47790;SDS011;33547;49.044;1.156;2023-01-20T03:46:44;43.35;;;25.77;;
47790;SDS011;33547;49.044;1.156;2023-01-20T03:49:37;39.47;;;26.55;;
47790;SDS011;33547;49.044;1.156;2023-01-20T03:52:24;34.47;;;23.70;;
47790;SDS011;33547;49.044;1.156;2023-01-20T03:55:00;36.17;;;23.70;;
47790;SDS011;33547;49.044;1.156;2023-01-20T03:57:34;33.28;;;23.73;;
47790;SDS011;33547;49.044;1.156;2023-01-20T04:00:07;34.75;;;23.27;;
47790;SDS011;33547;49.044;1.156;2023-01-20T04:02:34;33.95;;;23.58;;
47790;SDS011;33547;49.044;1.156;2023-01-20T04:05:02;32.75;;;24.38;;
47790;SDS011;33547;49.044;1.156;2023-01-20T04:07:29;36.20;;;24.60;;
47790;SDS011;33547;49.044;1.156;2023-01-20T04:09:57;35.97;;;23.02;;
47790;SDS011;33547;49.044;1.156;2023-01-20T04:12:28;39.55;;;24.63;;
47790;SDS011;33547;49.044;1.156;2023-01-20T04:14:54;33.20;;;22.05;;
47790;SDS011;33547;49.044;1.156;2023-01-20T04:17:20;35.70;;;24.33;;
47790;SDS011;33547;49.044;1.156;2023-01-20T04:19:50;34.67;;;23.58;;
47790;SDS011;33547;49.044;1.156;2023-01-20T04:22:35;36.03;;;23.35;;
47790;SDS011;33547;49.044;1.156;2023-01-20T04:25:24;33.47;;;23.00;;
47790;SDS011;33547;49.044;1.156;2023-01-20T04:27:52;26.55;;;20.20;;
47790;SDS011;33547;49.044;1.156;2023-01-20T04:30:17;32.72;;;23.33;;
47790;SDS011;33547;49.044;1.156;2023-01-20T04:32:43;29.05;;;21.58;;
47790;SDS011;33547;49.044;1.156;2023-01-20T04:35:12;32.53;;;22.35;;
47790;SDS011;33547;49.044;1.156;2023-01-20T04:37:40;33.22;;;22.00;;
47790;SDS011;33547;49.044;1.156;2023-01-20T04:40:06;31.40;;;22.20;;
47790;SDS011;33547;49.044;1.156;2023-01-20T04:42:33;28.85;;;21.80;;
47790;SDS011;33547;49.044;1.156;2023-01-20T04:44:58;28.58;;;20.70;;
47790;SDS011;33547;49.044;1.156;2023-01-20T04:47:24;33.83;;;22.75;;
47790;SDS011;33547;49.044;1.156;2023-01-20T04:49:50;29.92;;;21.88;;
47790;SDS011;33547;49.044;1.156;2023-01-20T04:52:16;31.65;;;22.83;;
47790;SDS011;33547;49.044;1.156;2023-01-20T04:54:41;36.90;;;25.33;;
47790;SDS011;33547;49.044;1.156;2023-01-20T04:57:07;39.30;;;25.60;;
47790;SDS011;33547;49.044;1.156;2023-01-20T04:59:33;39.40;;;25.55;;
47790;SDS011;33547;49.044;1.156;2023-01-20T05:01:59;36.05;;;25.45;;
47790;SDS011;33547;49.044;1.156;2023-01-20T05:04:24;32.25;;;22.05;;
47790;SDS011;33547;49.044;1.156;2023-01-20T05:06:50;35.67;;;23.80;;
47790;SDS011;33547;49.044;1.156;2023-01-20T05:09:16;32.83;;;23.17;;
47790;SDS011;33547;49.044;1.156;2023-01-20T05:11:42;30.70;;;22.10;;
47790;SDS011;33547;49.044;1.156;2023-01-20T05:14:09;34.78;;;23.17;;
47790;SDS011;33547;49.044;1.156;2023-01-20T05:16:35;28.80;;;21.38;;
47790;SDS011;33547;49.044;1.156;2023-01-20T05:19:01;35.58;;;23.17;;
47790;SDS011;33547;49.044;1.156;2023-01-20T05:21:27;66.13;;;40.50;;
47790;SDS011;33547;49.044;1.156;2023-01-20T05:23:53;64.30;;;37.83;;
47790;SDS011;33547;49.044;1.156;2023-01-20T05:26:19;66.20;;;39.60;;
47790;SDS011;33547;49.044;1.156;2023-01-20T05:28:46;69.65;;;42.63;;
47790;SDS011;33547;49.044;1.156;2023-01-20T05:31:12;63.80;;;39.88;;
47790;SDS011;33547;49.044;1.156;2023-01-20T05:33:38;56.90;;;35.17;;
47790;SDS011;33547;49.044;1.156;2023-01-20T05:36:07;37.25;;;24.33;;
47790;SDS011;33547;49.044;1.156;2023-01-20T05:38:34;41.30;;;26.98;;
47790;SDS011;33547;49.044;1.156;2023-01-20T05:41:01;57.33;;;36.53;;
47790;SDS011;33547;49.044;1.156;2023-01-20T05:43:27;38.17;;;26.48;;
47790;SDS011;33547;49.044;1.156;2023-01-20T05:45:53;42.03;;;27.92;;
47790;SDS011;33547;49.044;1.156;2023-01-20T05:48:19;41.17;;;26.77;;
47790;SDS011;33547;49.044;1.156;2023-01-20T05:50:45;37.95;;;25.40;;
47790;SDS011;33547;49.044;1.156;2023-01-20T05:53:12;30.42;;;21.48;;
47790;SDS011;33547;49.044;1.156;2023-01-20T05:55:38;30.00;;;20.05;;
47790;SDS011;33547;49.044;1.156;2023-01-20T05:58:03;34.15;;;19.75;;
47790;SDS011;33547;49.044;1.156;2023-01-20T06:00:29;27.35;;;19.65;;
47790;SDS011;33547;49.044;1.156;2023-01-20T06:02:55;26.85;;;18.08;;
47790;SDS011;33547;49.044;1.156;2023-01-20T06:05:21;27.58;;;18.80;;
47790;SDS011;33547;49.044;1.156;2023-01-20T06:07:47;27.75;;;19.08;;
47790;SDS011;33547;49.044;1.156;2023-01-20T06:10:13;23.90;;;16.77;;
47790;SDS011;33547;49.044;1.156;2023-01-20T06:12:40;24.98;;;18.27;;
47790;SDS011;33547;49.044;1.156;2023-01-20T06:15:06;22.85;;;17.40;;
47790;SDS011;33547;49.044;1.156;2023-01-20T06:17:32;25.98;;;17.27;;
47790;SDS011;33547;49.044;1.156;2023-01-20T06:19:58;25.73;;;18.38;;
47790;SDS011;33547;49.044;1.156;2023-01-20T06:22:24;21.15;;;15.93;;
47790;SDS011;33547;49.044;1.156;2023-01-20T06:24:50;28.33;;;18.83;;
47790;SDS011;33547;49.044;1.156;2023-01-20T06:27:16;26.70;;;17.48;;
47790;SDS011;33547;49.044;1.156;2023-01-20T06:29:42;22.20;;;16.33;;
47790;SDS011;33547;49.044;1.156;2023-01-20T06:32:08;25.45;;;17.58;;
47790;SDS011;33547;49.044;1.156;2023-01-20T06:34:34;26.90;;;18.30;;
47790;SDS011;33547;49.044;1.156;2023-01-20T06:37:00;27.88;;;18.42;;
47790;SDS011;33547;49.044;1.156;2023-01-20T06:39:26;20.67;;;15.80;;
47790;SDS011;33547;49.044;1.156;2023-01-20T06:41:55;23.00;;;15.75;;
47790;SDS011;33547;49.044;1.156;2023-01-20T06:44:22;25.90;;;17.42;;
47790;SDS011;33547;49.044;1.156;2023-01-20T06:46:48;24.70;;;18.25;;
47790;SDS011;33547;49.044;1.156;2023-01-20T06:49:14;22.33;;;17.17;;
47790;SDS011;33547;49.044;1.156;2023-01-20T06:51:40;24.90;;;17.60;;
47790;SDS011;33547;49.044;1.156;2023-01-20T06:54:05;23.27;;;16.83;;
47790;SDS011;33547;49.044;1.156;2023-01-20T06:56:31;22.77;;;15.93;;
47790;SDS011;33547;49.044;1.156;2023-01-20T06:58:57;25.48;;;17.67;;
47790;SDS011;33547;49.044;1.156;2023-01-20T07:01:26;20.23;;;15.13;;
47790;SDS011;33547;49.044;1.156;2023-01-20T07:03:54;22.70;;;15.70;;
47790;SDS011;33547;49.044;1.156;2023-01-20T07:08:52;20.23;;;13.75;;
47790;SDS011;33547;49.044;1.156;2023-01-20T07:11:17;22.10;;;16.58;;
47790;SDS011;33547;49.044;1.156;2023-01-20T07:13:43;24.00;;;17.83;;
47790;SDS011;33547;49.044;1.156;2023-01-20T07:16:09;24.92;;;17.98;;
47790;SDS011;33547;49.044;1.156;2023-01-20T07:18:35;27.13;;;19.65;;
47790;SDS011;33547;49.044;1.156;2023-01-20T07:21:01;30.70;;;22.55;;
47790;SDS011;33547;49.044;1.156;2023-01-20T07:23:27;42.28;;;29.08;;
47790;SDS011;33547;49.044;1.156;2023-01-20T07:25:59;30.42;;;22.65;;
47790;SDS011;33547;49.044;1.156;2023-01-20T07:28:26;26.73;;;18.20;;
47790;SDS011;33547;49.044;1.156;2023-01-20T07:30:52;22.80;;;15.40;;
47790;SDS011;33547;49.044;1.156;2023-01-20T07:33:18;18.15;;;12.68;;
47790;SDS011;33547;49.044;1.156;2023-01-20T07:35:44;17.95;;;13.48;;
47790;SDS011;33547;49.044;1.156;2023-01-20T07:38:14;16.83;;;12.85;;
47790;SDS011;33547;49.044;1.156;2023-01-20T07:40:40;18.83;;;12.57;;
47790;SDS011;33547;49.044;1.156;2023-01-20T07:43:05;22.33;;;12.85;;
47790;SDS011;33547;49.044;1.156;2023-01-20T07:45:31;17.75;;;12.30;;
47790;SDS011;33547;49.044;1.156;2023-01-20T07:47:57;19.00;;;12.30;;
47790;SDS011;33547;49.044;1.156;2023-01-20T07:50:22;22.25;;;12.73;;
47790;SDS011;33547;49.044;1.156;2023-01-20T07:52:48;19.88;;;12.43;;
47790;SDS011;33547;49.044;1.156;2023-01-20T07:55:14;18.65;;;12.55;;
47790;SDS011;33547;49.044;1.156;2023-01-20T07:57:39;21.42;;;13.32;;
47790;SDS011;33547;49.044;1.156;2023-01-20T08:00:05;22.25;;;13.02;;
47790;SDS011;33547;49.044;1.156;2023-01-20T08:02:37;18.02;;;12.50;;
47790;SDS011;33547;49.044;1.156;2023-01-20T08:05:03;19.75;;;13.52;;
47790;SDS011;33547;49.044;1.156;2023-01-20T08:07:30;20.95;;;11.18;;
47790;SDS011;33547;49.044;1.156;2023-01-20T08:09:56;20.58;;;11.50;;
47790;SDS011;33547;49.044;1.156;2023-01-20T08:12:22;15.98;;;11.07;;
47790;SDS011;33547;49.044;1.156;2023-01-20T08:14:48;18.20;;;11.10;;
47790;SDS011;33547;49.044;1.156;2023-01-20T08:17:14;17.27;;;10.30;;
47790;SDS011;33547;49.044;1.156;2023-01-20T08:19:40;16.27;;;10.25;;
47790;SDS011;33547;49.044;1.156;2023-01-20T08:22:05;18.77;;;11.07;;
47790;SDS011;33547;49.044;1.156;2023-01-20T08:24:31;18.27;;;10.75;;
47790;SDS011;33547;49.044;1.156;2023-01-20T08:26:57;23.98;;;15.35;;
47790;SDS011;33547;49.044;1.156;2023-01-20T08:29:23;24.75;;;16.02;;
47790;SDS011;33547;49.044;1.156;2023-01-20T08:31:49;22.40;;;13.02;;
47790;SDS011;33547;49.044;1.156;2023-01-20T08:34:15;18.80;;;9.90;;
47790;SDS011;33547;49.044;1.156;2023-01-20T08:36:42;13.65;;;8.68;;
47790;SDS011;33547;49.044;1.156;2023-01-20T08:39:11;10.02;;;5.70;;
47790;SDS011;33547;49.044;1.156;2023-01-20T08:41:40;9.50;;;5.88;;
47790;SDS011;33547;49.044;1.156;2023-01-20T08:44:08;12.52;;;7.90;;
47790;SDS011;33547;49.044;1.156;2023-01-20T08:46:36;20.27;;;12.90;;
47790;SDS011;33547;49.044;1.156;2023-01-20T08:49:06;18.73;;;11.88;;
47790;SDS011;33547;49.044;1.156;2023-01-20T08:51:36;23.58;;;15.35;;
47790;SDS011;33547;49.044;1.156;2023-01-20T08:54:02;22.40;;;16.27;;
47790;SDS011;33547;49.044;1.156;2023-01-20T08:56:28;42.17;;;25.92;;
47790;SDS011;33547;49.044;1.156;2023-01-20T08:58:55;44.20;;;29.15;;
47790;SDS011;33547;49.044;1.156;2023-01-20T09:01:24;38.15;;;24.75;;
47790;SDS011;33547;49.044;1.156;2023-01-20T09:03:51;46.25;;;28.95;;
47790;SDS011;33547;49.044;1.156;2023-01-20T09:06:18;44.85;;;29.15;;
47790;SDS011;33547;49.044;1.156;2023-01-20T09:08:45;36.63;;;26.17;;
47790;SDS011;33547;49.044;1.156;2023-01-20T09:11:16;37.33;;;24.75;;
47790;SDS011;33547;49.044;1.156;2023-01-20T09:13:44;23.73;;;18.10;;
47790;SDS011;33547;49.044;1.156;2023-01-20T09:16:11;36.90;;;23.10;;
47790;SDS011;33547;49.044;1.156;2023-01-20T09:18:38;44.25;;;31.52;;
47790;SDS011;33547;49.044;1.156;2023-01-20T09:21:04;35.05;;;29.25;;
47790;SDS011;33547;49.044;1.156;2023-01-20T09:23:30;38.40;;;28.98;;
47790;SDS011;33547;49.044;1.156;2023-01-20T09:26:00;35.65;;;27.95;;
47790;SDS011;33547;49.044;1.156;2023-01-20T09:28:28;46.30;;;33.45;;
47790;SDS011;33547;49.044;1.156;2023-01-20T09:30:58;36.63;;;28.75;;
47790;SDS011;33547;49.044;1.156;2023-01-20T09:33:29;21.20;;;15.70;;
47790;SDS011;33547;49.044;1.156;2023-01-20T09:35:56;22.15;;;15.82;;
47790;SDS011;33547;49.044;1.156;2023-01-20T09:38:23;25.73;;;16.17;;
47790;SDS011;33547;49.044;1.156;2023-01-20T09:49:13;5.63;;;3.15;;
47790;SDS011;33547;49.044;1.156;2023-01-20T09:55:02;10.07;;;5.25;;
47790;SDS011;33547;49.044;1.156;2023-01-20T09:57:35;7.82;;;2.70;;
47790;SDS011;33547;49.044;1.156;2023-01-20T10:00:06;7.38;;;4.03;;
47790;SDS011;33547;49.044;1.156;2023-01-20T10:02:38;6.20;;;3.22;;
47790;SDS011;33547;49.044;1.156;2023-01-20T10:05:09;9.57;;;3.22;;
47790;SDS011;33547;49.044;1.156;2023-01-20T10:07:57;4.30;;;3.00;;
47790;SDS011;33547;49.044;1.156;2023-01-20T10:10:48;6.80;;;3.30;;
47790;SDS011;33547;49.044;1.156;2023-01-20T10:16:11;5.97;;;4.25;;
47790;SDS011;33547;49.044;1.156;2023-01-20T10:18:51;9.50;;;3.10;;
47790;SDS011;33547;49.044;1.156;2023-01-20T10:24:06;10.38;;;3.83;;
47790;SDS011;33547;49.044;1.156;2023-01-20T10:26:47;6.20;;;3.72;;
47790;SDS011;33547;49.044;1.156;2023-01-20T10:32:01;10.45;;;3.17;;
47790;SDS011;33547;49.044;1.156;2023-01-20T10:34:40;7.43;;;3.47;;
47790;SDS011;33547;49.044;1.156;2023-01-20T10:37:10;5.60;;;2.90;;
47790;SDS011;33547;49.044;1.156;2023-01-20T10:39:38;4.03;;;2.88;;
47790;SDS011;33547;49.044;1.156;2023-01-20T10:42:11;7.97;;;2.85;;
47790;SDS011;33547;49.044;1.156;2023-01-20T10:44:38;8.60;;;3.08;;
47790;SDS011;33547;49.044;1.156;2023-01-20T10:55:05;6.00;;;3.53;;
47790;SDS011;33547;49.044;1.156;2023-01-20T10:57:43;8.15;;;3.47;;
47790;SDS011;33547;49.044;1.156;2023-01-20T11:00:30;6.18;;;4.60;;
47790;SDS011;33547;49.044;1.156;2023-01-20T11:02:57;7.37;;;3.90;;
47790;SDS011;33547;49.044;1.156;2023-01-20T11:05:25;7.50;;;4.45;;
47790;SDS011;33547;49.044;1.156;2023-01-20T11:07:54;7.60;;;5.20;;
47790;SDS011;33547;49.044;1.156;2023-01-20T11:10:24;7.25;;;5.15;;
47790;SDS011;33547;49.044;1.156;2023-01-20T11:13:01;8.15;;;4.28;;
47790;SDS011;33547;49.044;1.156;2023-01-20T11:20:57;6.05;;;3.83;;
47790;SDS011;33547;49.044;1.156;2023-01-20T11:25:59;9.05;;;4.55;;
47790;SDS011;33547;49.044;1.156;2023-01-20T11:28:36;6.88;;;3.83;;
47790;SDS011;33547;49.044;1.156;2023-01-20T11:31:47;11.93;;;7.25;;
47790;SDS011;33547;49.044;1.156;2023-01-20T11:42:15;8.02;;;4.15;;
47790;SDS011;33547;49.044;1.156;2023-01-20T11:44:48;10.40;;;5.22;;
47790;SDS011;33547;49.044;1.156;2023-01-20T11:52:39;7.80;;;3.90;;
47790;SDS011;33547;49.044;1.156;2023-01-20T11:57:42;7.72;;;3.83;;
47790;SDS011;33547;49.044;1.156;2023-01-20T12:12:19;12.23;;;4.90;;
47790;SDS011;33547;49.044;1.156;2023-01-20T12:16:54;8.93;;;4.43;;
47790;SDS011;33547;49.044;1.156;2023-01-20T12:22:03;7.87;;;4.93;;
47790;SDS011;33547;49.044;1.156;2023-01-20T12:27:56;10.63;;;5.28;;
47790;SDS011;33547;49.044;1.156;2023-01-20T12:30:40;11.88;;;6.10;;
47790;SDS011;33547;49.044;1.156;2023-01-20T12:33:10;7.03;;;4.78;;
47790;SDS011;33547;49.044;1.156;2023-01-20T12:35:45;10.85;;;4.30;;
47790;SDS011;33547;49.044;1.156;2023-01-20T12:41:02;16.60;;;8.90;;
47790;SDS011;33547;49.044;1.156;2023-01-20T12:43:32;16.70;;;8.35;;
47790;SDS011;33547;49.044;1.156;2023-01-20T12:49:01;14.65;;;8.35;;
47790;SDS011;33547;49.044;1.156;2023-01-20T12:51:41;9.15;;;5.85;;
47790;SDS011;33547;49.044;1.156;2023-01-20T13:00:28;11.15;;;5.72;;
47790;SDS011;33547;49.044;1.156;2023-01-20T13:14:36;7.25;;;3.97;;
47790;SDS011;33547;49.044;1.156;2023-01-20T13:19:52;8.50;;;4.68;;
47790;SDS011;33547;49.044;1.156;2023-01-20T13:22:22;8.30;;;4.57;;
47790;SDS011;33547;49.044;1.156;2023-01-20T13:24:50;16.50;;;6.55;;
47790;SDS011;33547;49.044;1.156;2023-01-20T13:27:34;18.73;;;9.13;;
47790;SDS011;33547;49.044;1.156;2023-01-20T13:30:02;8.25;;;2.90;;
47790;SDS011;33547;49.044;1.156;2023-01-20T13:32:32;8.40;;;3.97;;
47790;SDS011;33547;49.044;1.156;2023-01-20T13:37:46;10.00;;;3.00;;
47790;SDS011;33547;49.044;1.156;2023-01-20T13:42:59;9.02;;;3.47;;
47790;SDS011;33547;49.044;1.156;2023-01-20T13:45:26;9.57;;;3.33;;
47790;SDS011;33547;49.044;1.156;2023-01-20T13:50:56;9.55;;;3.08;;
47790;SDS011;33547;49.044;1.156;2023-01-20T13:58:24;8.02;;;3.08;;
47790;SDS011;33547;49.044;1.156;2023-01-20T14:00:55;9.90;;;4.50;;
47790;SDS011;33547;49.044;1.156;2023-01-20T14:03:40;5.15;;;3.25;;
47790;SDS011;33547;49.044;1.156;2023-01-20T14:08:42;7.70;;;2.90;;
47790;SDS011;33547;49.044;1.156;2023-01-20T14:11:17;11.13;;;4.30;;
47790;SDS011;33547;49.044;1.156;2023-01-20T14:13:51;11.90;;;3.92;;
47790;SDS011;33547;49.044;1.156;2023-01-20T14:16:19;6.38;;;2.95;;
47790;SDS011;33547;49.044;1.156;2023-01-20T14:18:50;15.75;;;6.50;;
47790;SDS011;33547;49.044;1.156;2023-01-20T14:21:19;7.85;;;3.75;;
47790;SDS011;33547;49.044;1.156;2023-01-20T14:23:47;7.50;;;3.78;;
47790;SDS011;33547;49.044;1.156;2023-01-20T14:26:19;10.70;;;6.50;;
47790;SDS011;33547;49.044;1.156;2023-01-20T14:28:46;7.00;;;2.65;;
47790;SDS011;33547;49.044;1.156;2023-01-20T14:37:01;7.95;;;2.75;;
47790;SDS011;33547;49.044;1.156;2023-01-20T14:39:42;10.40;;;2.63;;
47790;SDS011;33547;49.044;1.156;2023-01-20T14:42:16;5.78;;;2.38;;
47790;SDS011;33547;49.044;1.156;2023-01-20T14:44:45;5.45;;;2.28;;
47790;SDS011;33547;49.044;1.156;2023-01-20T14:47:11;8.07;;;2.80;;
47790;SDS011;33547;49.044;1.156;2023-01-20T14:49:38;5.97;;;2.45;;
47790;SDS011;33547;49.044;1.156;2023-01-20T14:52:05;7.05;;;2.55;;
47790;SDS011;33547;49.044;1.156;2023-01-20T14:54:37;9.95;;;2.80;;
47790;SDS011;33547;49.044;1.156;2023-01-20T14:57:31;5.55;;;2.28;;
47790;SDS011;33547;49.044;1.156;2023-01-20T15:02:53;8.93;;;3.35;;
47790;SDS011;33547;49.044;1.156;2023-01-20T15:05:49;8.00;;;3.38;;
47790;SDS011;33547;49.044;1.156;2023-01-20T15:11:09;4.45;;;2.42;;
47790;SDS011;33547;49.044;1.156;2023-01-20T15:13:36;11.43;;;5.15;;
47790;SDS011;33547;49.044;1.156;2023-01-20T15:18:38;4.97;;;2.05;;
47790;SDS011;33547;49.044;1.156;2023-01-20T15:21:11;8.98;;;2.50;;
47790;SDS011;33547;49.044;1.156;2023-01-20T15:23:43;7.53;;;2.30;;
47790;SDS011;33547;49.044;1.156;2023-01-20T15:26:25;6.53;;;2.33;;
47790;SDS011;33547;49.044;1.156;2023-01-20T15:28:53;7.15;;;2.90;;
47790;SDS011;33547;49.044;1.156;2023-01-20T15:31:20;9.50;;;2.80;;
47790;SDS011;33547;49.044;1.156;2023-01-20T15:33:46;5.45;;;2.55;;
47790;SDS011;33547;49.044;1.156;2023-01-20T15:38:40;8.27;;;2.55;;
47790;SDS011;33547;49.044;1.156;2023-01-20T15:41:06;6.82;;;2.20;;
47790;SDS011;33547;49.044;1.156;2023-01-20T15:43:33;6.38;;;2.05;;
47790;SDS011;33547;49.044;1.156;2023-01-20T15:45:58;6.07;;;2.15;;
47790;SDS011;33547;49.044;1.156;2023-01-20T15:48:24;9.90;;;3.42;;
47790;SDS011;33547;49.044;1.156;2023-01-20T15:50:50;8.52;;;3.25;;
47790;SDS011;33547;49.044;1.156;2023-01-20T15:53:15;7.95;;;2.58;;
47790;SDS011;33547;49.044;1.156;2023-01-20T15:55:44;5.97;;;2.63;;
47790;SDS011;33547;49.044;1.156;2023-01-20T15:58:19;10.30;;;2.50;;
47790;SDS011;33547;49.044;1.156;2023-01-20T16:00:53;9.07;;;2.95;;
47790;SDS011;33547;49.044;1.156;2023-01-20T16:03:19;8.23;;;2.67;;
47790;SDS011;33547;49.044;1.156;2023-01-20T16:05:47;9.05;;;4.63;;
47790;SDS011;33547;49.044;1.156;2023-01-20T16:08:14;12.95;;;5.38;;
47790;SDS011;33547;49.044;1.156;2023-01-20T16:10:45;10.77;;;4.28;;
47790;SDS011;33547;49.044;1.156;2023-01-20T16:13:11;10.75;;;4.53;;
47790;SDS011;33547;49.044;1.156;2023-01-20T16:15:37;14.63;;;7.47;;
47790;SDS011;33547;49.044;1.156;2023-01-20T16:18:08;14.77;;;9.43;;
47790;SDS011;33547;49.044;1.156;2023-01-20T16:20:36;16.88;;;8.70;;
47790;SDS011;33547;49.044;1.156;2023-01-20T16:23:02;11.90;;;6.55;;
47790;SDS011;33547;49.044;1.156;2023-01-20T16:25:27;15.70;;;9.32;;
47790;SDS011;33547;49.044;1.156;2023-01-20T16:27:53;14.02;;;7.60;;
47790;SDS011;33547;49.044;1.156;2023-01-20T16:30:19;53.78;;;23.70;;
47790;SDS011;33547;49.044;1.156;2023-01-20T16:32:46;21.92;;;8.00;;
47790;SDS011;33547;49.044;1.156;2023-01-20T16:41:56;20.83;;;8.85;;
47790;SDS011;33547;49.044;1.156;2023-01-20T16:44:22;18.98;;;8.20;;
47790;SDS011;33547;49.044;1.156;2023-01-20T16:46:47;13.80;;;7.03;;
47790;SDS011;33547;49.044;1.156;2023-01-20T16:49:13;13.00;;;5.80;;
47790;SDS011;33547;49.044;1.156;2023-01-20T16:51:39;9.50;;;3.97;;
47790;SDS011;33547;49.044;1.156;2023-01-20T16:54:05;16.30;;;6.85;;
47790;SDS011;33547;49.044;1.156;2023-01-20T16:56:31;17.20;;;8.50;;
47790;SDS011;33547;49.044;1.156;2023-01-20T16:58:58;21.48;;;10.25;;
47790;SDS011;33547;49.044;1.156;2023-01-20T17:01:28;26.42;;;15.60;;
47790;SDS011;33547;49.044;1.156;2023-01-20T17:03:55;22.30;;;11.70;;
47790;SDS011;33547;49.044;1.156;2023-01-20T17:06:30;21.38;;;11.82;;
47790;SDS011;33547;49.044;1.156;2023-01-20T17:08:58;12.05;;;7.35;;
47790;SDS011;33547;49.044;1.156;2023-01-20T17:13:53;36.75;;;18.02;;
47790;SDS011;33547;49.044;1.156;2023-01-20T17:16:19;44.67;;;25.05;;
47790;SDS011;33547;49.044;1.156;2023-01-20T17:18:50;37.92;;;23.58;;
47790;SDS011;33547;49.044;1.156;2023-01-20T17:21:17;37.05;;;20.25;;
47790;SDS011;33547;49.044;1.156;2023-01-20T17:23:47;25.00;;;14.45;;